sensor_id;sensor_type;location;lat;lon;timestamp;P1;durP1;ratioP1;P2;durP2;ratioP2
22571;SDS011;11452;53.368;14.658;2023-03-05T00:04:08;5.50;;;1.90;;
22571;SDS011;11452;53.368;14.658;2023-03-05T00:09:15;2.60;;;1.40;;
22571;SDS011;11452;53.368;14.658;2023-03-05T00:14:20;1.83;;;1.50;;
22571;SDS011;11452;53.368;14.658;2023-03-05T00:19:26;3.70;;;1.30;;
22571;SDS011;11452;53.368;14.658;2023-03-05T00:24:32;2.93;;;1.97;;
22571;SDS011;11452;53.368;14.658;2023-03-05T00:29:39;2.77;;;1.70;;
22571;SDS011;11452;53.368;14.658;2023-03-05T00:34:44;1.60;;;1.43;;
22571;SDS011;11452;53.368;14.658;2023-03-05T00:39:51;3.13;;;1.80;;
22571;SDS011;11452;53.368;14.658;2023-03-05T00:44:57;1.70;;;1.10;;
22571;SDS011;11452;53.368;14.658;2023-03-05T00:50:03;2.00;;;1.43;;
22571;SDS011;11452;53.368;14.658;2023-03-05T00:55:09;3.40;;;1.87;;
22571;SDS011;11452;53.368;14.658;2023-03-05T01:00:15;3.70;;;1.47;;
22571;SDS011;11452;53.368;14.658;2023-03-05T01:05:21;3.30;;;1.80;;
22571;SDS011;11452;53.368;14.658;2023-03-05T01:10:27;3.10;;;1.47;;
22571;SDS011;11452;53.368;14.658;2023-03-05T01:15:33;3.03;;;1.37;;
22571;SDS011;11452;53.368;14.658;2023-03-05T01:20:39;1.93;;;1.33;;
22571;SDS011;11452;53.368;14.658;2023-03-05T01:25:51;2.00;;;1.00;;
22571;SDS011;11452;53.368;14.658;2023-03-05T01:30:59;2.37;;;1.23;;
22571;SDS011;11452;53.368;14.658;2023-03-05T01:36:08;2.67;;;1.40;;
22571;SDS011;11452;53.368;14.658;2023-03-05T01:41:18;3.07;;;1.43;;
22571;SDS011;11452;53.368;14.658;2023-03-05T01:51:41;3.83;;;2.17;;
22571;SDS011;11452;53.368;14.658;2023-03-05T01:56:47;4.37;;;1.50;;
22571;SDS011;11452;53.368;14.658;2023-03-05T02:01:55;2.17;;;1.23;;
22571;SDS011;11452;53.368;14.658;2023-03-05T02:07:03;2.07;;;1.07;;
22571;SDS011;11452;53.368;14.658;2023-03-05T02:12:09;2.60;;;1.80;;
22571;SDS011;11452;53.368;14.658;2023-03-05T02:17:17;2.93;;;1.17;;
22571;SDS011;11452;53.368;14.658;2023-03-05T02:22:23;2.07;;;1.10;;
22571;SDS011;11452;53.368;14.658;2023-03-05T02:27:30;4.00;;;1.40;;
22571;SDS011;11452;53.368;14.658;2023-03-05T02:32:38;5.60;;;1.30;;
22571;SDS011;11452;53.368;14.658;2023-03-05T02:37:44;3.57;;;1.87;;
22571;SDS011;11452;53.368;14.658;2023-03-05T02:42:49;3.17;;;1.77;;
22571;SDS011;11452;53.368;14.658;2023-03-05T02:47:56;2.97;;;1.30;;
22571;SDS011;11452;53.368;14.658;2023-03-05T02:53:02;1.50;;;1.40;;
22571;SDS011;11452;53.368;14.658;2023-03-05T02:58:07;3.60;;;1.30;;
22571;SDS011;11452;53.368;14.658;2023-03-05T03:03:13;1.83;;;1.00;;
22571;SDS011;11452;53.368;14.658;2023-03-05T03:08:19;3.43;;;1.17;;
22571;SDS011;11452;53.368;14.658;2023-03-05T03:13:24;2.57;;;1.20;;
22571;SDS011;11452;53.368;14.658;2023-03-05T03:18:30;1.20;;;0.80;;
22571;SDS011;11452;53.368;14.658;2023-03-05T03:23:35;1.83;;;1.10;;
22571;SDS011;11452;53.368;14.658;2023-03-05T03:28:41;1.70;;;1.20;;
22571;SDS011;11452;53.368;14.658;2023-03-05T03:33:47;4.83;;;1.27;;
22571;SDS011;11452;53.368;14.658;2023-03-05T03:38:52;2.00;;;1.00;;
22571;SDS011;11452;53.368;14.658;2023-03-05T03:43:58;1.80;;;1.03;;
22571;SDS011;11452;53.368;14.658;2023-03-05T03:49:05;1.90;;;1.03;;
22571;SDS011;11452;53.368;14.658;2023-03-05T03:54:12;2.40;;;1.20;;
22571;SDS011;11452;53.368;14.658;2023-03-05T03:59:18;2.20;;;1.27;;
22571;SDS011;11452;53.368;14.658;2023-03-05T04:04:27;4.23;;;1.17;;
22571;SDS011;11452;53.368;14.658;2023-03-05T04:09:33;4.03;;;1.70;;
22571;SDS011;11452;53.368;14.658;2023-03-05T04:14:38;6.50;;;1.67;;
22571;SDS011;11452;53.368;14.658;2023-03-05T04:19:43;3.17;;;1.50;;
22571;SDS011;11452;53.368;14.658;2023-03-05T04:24:49;2.33;;;1.60;;
22571;SDS011;11452;53.368;14.658;2023-03-05T04:29:54;3.73;;;1.57;;
22571;SDS011;11452;53.368;14.658;2023-03-05T04:35:00;5.50;;;1.80;;
22571;SDS011;11452;53.368;14.658;2023-03-05T04:40:06;3.93;;;1.70;;
22571;SDS011;11452;53.368;14.658;2023-03-05T04:45:12;5.60;;;1.40;;
22571;SDS011;11452;53.368;14.658;2023-03-05T04:50:19;3.30;;;1.50;;
22571;SDS011;11452;53.368;14.658;2023-03-05T04:55:25;3.73;;;1.63;;
22571;SDS011;11452;53.368;14.658;2023-03-05T05:00:32;6.60;;;2.00;;
22571;SDS011;11452;53.368;14.658;2023-03-05T05:05:38;9.00;;;2.03;;
22571;SDS011;11452;53.368;14.658;2023-03-05T05:10:43;4.13;;;1.87;;
22571;SDS011;11452;53.368;14.658;2023-03-05T05:15:49;4.60;;;1.73;;
22571;SDS011;11452;53.368;14.658;2023-03-05T05:20:55;6.10;;;1.60;;
22571;SDS011;11452;53.368;14.658;2023-03-05T05:26:01;2.10;;;1.43;;
22571;SDS011;11452;53.368;14.658;2023-03-05T05:31:09;1.87;;;1.30;;
22571;SDS011;11452;53.368;14.658;2023-03-05T05:36:16;3.80;;;1.63;;
22571;SDS011;11452;53.368;14.658;2023-03-05T05:41:22;3.93;;;1.50;;
22571;SDS011;11452;53.368;14.658;2023-03-05T05:46:28;4.03;;;1.60;;
22571;SDS011;11452;53.368;14.658;2023-03-05T05:51:34;2.17;;;1.60;;
22571;SDS011;11452;53.368;14.658;2023-03-05T05:56:39;3.67;;;1.53;;
22571;SDS011;11452;53.368;14.658;2023-03-05T06:01:45;7.23;;;1.53;;
22571;SDS011;11452;53.368;14.658;2023-03-05T06:06:51;3.07;;;1.43;;
22571;SDS011;11452;53.368;14.658;2023-03-05T06:11:57;6.57;;;1.63;;
22571;SDS011;11452;53.368;14.658;2023-03-05T06:17:02;5.00;;;1.63;;
22571;SDS011;11452;53.368;14.658;2023-03-05T06:22:08;4.00;;;1.00;;
22571;SDS011;11452;53.368;14.658;2023-03-05T06:27:13;2.07;;;1.13;;
22571;SDS011;11452;53.368;14.658;2023-03-05T06:32:19;3.93;;;1.73;;
22571;SDS011;11452;53.368;14.658;2023-03-05T06:37:25;4.40;;;2.03;;
22571;SDS011;11452;53.368;14.658;2023-03-05T06:42:31;2.03;;;1.47;;
22571;SDS011;11452;53.368;14.658;2023-03-05T06:47:38;4.17;;;1.83;;
22571;SDS011;11452;53.368;14.658;2023-03-05T06:52:43;6.07;;;1.93;;
22571;SDS011;11452;53.368;14.658;2023-03-05T06:57:48;2.07;;;1.20;;
22571;SDS011;11452;53.368;14.658;2023-03-05T07:02:54;5.87;;;2.00;;
22571;SDS011;11452;53.368;14.658;2023-03-05T07:08:00;4.57;;;1.70;;
22571;SDS011;11452;53.368;14.658;2023-03-05T07:13:07;2.53;;;1.23;;
22571;SDS011;11452;53.368;14.658;2023-03-05T07:18:13;3.90;;;1.50;;
22571;SDS011;11452;53.368;14.658;2023-03-05T07:23:19;3.60;;;1.43;;
22571;SDS011;11452;53.368;14.658;2023-03-05T07:28:24;5.93;;;1.70;;
22571;SDS011;11452;53.368;14.658;2023-03-05T07:33:30;2.83;;;1.17;;
22571;SDS011;11452;53.368;14.658;2023-03-05T07:38:37;4.73;;;1.70;;
22571;SDS011;11452;53.368;14.658;2023-03-05T07:43:43;5.37;;;1.50;;
22571;SDS011;11452;53.368;14.658;2023-03-05T07:48:50;3.37;;;1.63;;
22571;SDS011;11452;53.368;14.658;2023-03-05T07:53:57;3.70;;;1.30;;
22571;SDS011;11452;53.368;14.658;2023-03-05T07:59:06;4.00;;;1.70;;
22571;SDS011;11452;53.368;14.658;2023-03-05T08:04:13;2.07;;;0.80;;
22571;SDS011;11452;53.368;14.658;2023-03-05T08:09:19;1.90;;;1.07;;
22571;SDS011;11452;53.368;14.658;2023-03-05T08:14:24;2.43;;;1.07;;
22571;SDS011;11452;53.368;14.658;2023-03-05T08:19:31;5.10;;;2.20;;
22571;SDS011;11452;53.368;14.658;2023-03-05T08:24:37;3.60;;;1.93;;
22571;SDS011;11452;53.368;14.658;2023-03-05T08:29:43;3.00;;;1.13;;
22571;SDS011;11452;53.368;14.658;2023-03-05T08:34:48;2.33;;;1.60;;
22571;SDS011;11452;53.368;14.658;2023-03-05T08:39:54;1.70;;;1.47;;
22571;SDS011;11452;53.368;14.658;2023-03-05T08:45:00;3.57;;;1.30;;
22571;SDS011;11452;53.368;14.658;2023-03-05T08:50:05;3.53;;;2.33;;
22571;SDS011;11452;53.368;14.658;2023-03-05T08:55:12;1.40;;;1.07;;
22571;SDS011;11452;53.368;14.658;2023-03-05T09:00:18;1.23;;;0.83;;
22571;SDS011;11452;53.368;14.658;2023-03-05T09:05:24;2.00;;;1.20;;
22571;SDS011;11452;53.368;14.658;2023-03-05T09:10:29;1.23;;;0.97;;
22571;SDS011;11452;53.368;14.658;2023-03-05T09:15:35;3.80;;;1.40;;
22571;SDS011;11452;53.368;14.658;2023-03-05T09:20:41;4.70;;;2.10;;
22571;SDS011;11452;53.368;14.658;2023-03-05T09:25:46;2.53;;;1.50;;
22571;SDS011;11452;53.368;14.658;2023-03-05T09:30:52;5.57;;;2.50;;
22571;SDS011;11452;53.368;14.658;2023-03-05T09:35:58;3.37;;;1.70;;
22571;SDS011;11452;53.368;14.658;2023-03-05T09:41:05;3.83;;;1.83;;
22571;SDS011;11452;53.368;14.658;2023-03-05T09:51:27;2.70;;;1.37;;
22571;SDS011;11452;53.368;14.658;2023-03-05T09:56:34;2.20;;;1.17;;
22571;SDS011;11452;53.368;14.658;2023-03-05T10:01:42;3.37;;;1.40;;
22571;SDS011;11452;53.368;14.658;2023-03-05T10:12:01;3.87;;;1.17;;
22571;SDS011;11452;53.368;14.658;2023-03-05T10:22:57;2.13;;;1.47;;
22571;SDS011;11452;53.368;14.658;2023-03-05T10:28:03;1.97;;;1.33;;
22571;SDS011;11452;53.368;14.658;2023-03-05T10:44:42;2.47;;;0.70;;
22571;SDS011;11452;53.368;14.658;2023-03-05T10:49:52;3.07;;;1.20;;
22571;SDS011;11452;53.368;14.658;2023-03-05T10:55:00;2.20;;;1.03;;
22571;SDS011;11452;53.368;14.658;2023-03-05T11:05:35;3.90;;;1.30;;
22571;SDS011;11452;53.368;14.658;2023-03-05T11:10:59;2.73;;;1.00;;
22571;SDS011;11452;53.368;14.658;2023-03-05T11:16:19;1.53;;;0.77;;
22571;SDS011;11452;53.368;14.658;2023-03-05T11:21:26;1.17;;;0.90;;
22571;SDS011;11452;53.368;14.658;2023-03-05T11:26:33;3.93;;;1.30;;
22571;SDS011;11452;53.368;14.658;2023-03-05T11:31:39;2.03;;;1.00;;
22571;SDS011;11452;53.368;14.658;2023-03-05T11:42:08;1.00;;;0.60;;
22571;SDS011;11452;53.368;14.658;2023-03-05T11:47:20;2.00;;;0.70;;
22571;SDS011;11452;53.368;14.658;2023-03-05T11:52:33;1.97;;;0.77;;
22571;SDS011;11452;53.368;14.658;2023-03-05T11:58:09;2.57;;;0.80;;
22571;SDS011;11452;53.368;14.658;2023-03-05T12:02:51;4.23;;;1.03;;
22571;SDS011;11452;53.368;14.658;2023-03-05T12:07:59;2.93;;;1.10;;
22571;SDS011;11452;53.368;14.658;2023-03-05T12:13:45;2.77;;;0.80;;
22571;SDS011;11452;53.368;14.658;2023-03-05T12:23:56;6.00;;;2.27;;
22571;SDS011;11452;53.368;14.658;2023-03-05T12:29:05;4.47;;;1.80;;
22571;SDS011;11452;53.368;14.658;2023-03-05T13:06:32;2.93;;;1.80;;
22571;SDS011;11452;53.368;14.658;2023-03-05T13:11:40;2.33;;;1.60;;
22571;SDS011;11452;53.368;14.658;2023-03-05T13:16:48;4.43;;;2.07;;
22571;SDS011;11452;53.368;14.658;2023-03-05T13:21:58;2.93;;;2.03;;
22571;SDS011;11452;53.368;14.658;2023-03-05T13:27:19;3.40;;;1.73;;
22571;SDS011;11452;53.368;14.658;2023-03-05T13:32:32;4.13;;;2.00;;
22571;SDS011;11452;53.368;14.658;2023-03-05T13:37:38;5.97;;;2.33;;
22571;SDS011;11452;53.368;14.658;2023-03-05T13:42:44;4.40;;;2.10;;
22571;SDS011;11452;53.368;14.658;2023-03-05T13:47:59;2.17;;;1.40;;
22571;SDS011;11452;53.368;14.658;2023-03-05T13:53:16;2.20;;;1.23;;
22571;SDS011;11452;53.368;14.658;2023-03-05T14:09:40;3.60;;;1.17;;
22571;SDS011;11452;53.368;14.658;2023-03-05T14:14:34;1.87;;;0.90;;
22571;SDS011;11452;53.368;14.658;2023-03-05T14:19:41;3.07;;;1.80;;
22571;SDS011;11452;53.368;14.658;2023-03-05T14:24:50;1.83;;;1.10;;
22571;SDS011;11452;53.368;14.658;2023-03-05T14:29:56;1.87;;;1.50;;
22571;SDS011;11452;53.368;14.658;2023-03-05T14:35:03;1.13;;;0.93;;
22571;SDS011;11452;53.368;14.658;2023-03-05T14:45:29;2.53;;;1.30;;
22571;SDS011;11452;53.368;14.658;2023-03-05T14:50:32;3.80;;;1.30;;
22571;SDS011;11452;53.368;14.658;2023-03-05T14:55:40;1.73;;;1.00;;
22571;SDS011;11452;53.368;14.658;2023-03-05T15:00:47;3.07;;;2.10;;
22571;SDS011;11452;53.368;14.658;2023-03-05T15:05:55;4.17;;;1.30;;
22571;SDS011;11452;53.368;14.658;2023-03-05T15:11:02;1.80;;;1.37;;
22571;SDS011;11452;53.368;14.658;2023-03-05T15:16:09;1.67;;;1.20;;
22571;SDS011;11452;53.368;14.658;2023-03-05T15:21:18;4.30;;;1.97;;
22571;SDS011;11452;53.368;14.658;2023-03-05T15:26:23;3.90;;;1.43;;
22571;SDS011;11452;53.368;14.658;2023-03-05T15:31:29;2.03;;;1.17;;
22571;SDS011;11452;53.368;14.658;2023-03-05T15:36:36;1.60;;;1.33;;
22571;SDS011;11452;53.368;14.658;2023-03-05T15:41:42;2.53;;;1.20;;
22571;SDS011;11452;53.368;14.658;2023-03-05T15:46:47;1.93;;;1.23;;
22571;SDS011;11452;53.368;14.658;2023-03-05T15:51:53;2.33;;;1.10;;
22571;SDS011;11452;53.368;14.658;2023-03-05T15:56:59;2.73;;;0.90;;
22571;SDS011;11452;53.368;14.658;2023-03-05T16:02:05;4.20;;;1.60;;
22571;SDS011;11452;53.368;14.658;2023-03-05T16:07:11;5.60;;;1.83;;
22571;SDS011;11452;53.368;14.658;2023-03-05T16:12:23;2.67;;;1.30;;
22571;SDS011;11452;53.368;14.658;2023-03-05T16:17:30;2.43;;;1.60;;
22571;SDS011;11452;53.368;14.658;2023-03-05T16:22:37;3.47;;;2.10;;
22571;SDS011;11452;53.368;14.658;2023-03-05T16:27:42;4.20;;;2.30;;
22571;SDS011;11452;53.368;14.658;2023-03-05T16:32:48;4.80;;;2.90;;
22571;SDS011;11452;53.368;14.658;2023-03-05T16:37:55;7.07;;;3.60;;
22571;SDS011;11452;53.368;14.658;2023-03-05T16:43:01;4.60;;;3.57;;
22571;SDS011;11452;53.368;14.658;2023-03-05T16:48:06;7.47;;;3.30;;
22571;SDS011;11452;53.368;14.658;2023-03-05T16:53:12;6.33;;;2.80;;
22571;SDS011;11452;53.368;14.658;2023-03-05T16:58:18;6.57;;;3.23;;
22571;SDS011;11452;53.368;14.658;2023-03-05T17:03:23;4.60;;;2.47;;
22571;SDS011;11452;53.368;14.658;2023-03-05T17:08:30;3.10;;;2.00;;
22571;SDS011;11452;53.368;14.658;2023-03-05T17:13:35;3.30;;;2.13;;
22571;SDS011;11452;53.368;14.658;2023-03-05T17:18:41;2.93;;;2.17;;
22571;SDS011;11452;53.368;14.658;2023-03-05T17:23:47;6.07;;;2.30;;
22571;SDS011;11452;53.368;14.658;2023-03-05T17:28:53;4.30;;;2.33;;
22571;SDS011;11452;53.368;14.658;2023-03-05T17:33:58;6.63;;;2.73;;
22571;SDS011;11452;53.368;14.658;2023-03-05T17:39:04;5.53;;;2.50;;
22571;SDS011;11452;53.368;14.658;2023-03-05T17:44:11;3.70;;;1.90;;
22571;SDS011;11452;53.368;14.658;2023-03-05T17:49:16;4.43;;;2.43;;
22571;SDS011;11452;53.368;14.658;2023-03-05T17:54:22;4.27;;;1.87;;
22571;SDS011;11452;53.368;14.658;2023-03-05T17:59:28;3.03;;;1.47;;
22571;SDS011;11452;53.368;14.658;2023-03-05T18:04:34;3.50;;;1.73;;
22571;SDS011;11452;53.368;14.658;2023-03-05T18:09:40;2.17;;;1.57;;
22571;SDS011;11452;53.368;14.658;2023-03-05T18:14:49;6.73;;;1.70;;
22571;SDS011;11452;53.368;14.658;2023-03-05T18:19:57;3.20;;;2.40;;
22571;SDS011;11452;53.368;14.658;2023-03-05T18:25:04;4.10;;;2.10;;
22571;SDS011;11452;53.368;14.658;2023-03-05T18:30:11;4.90;;;2.20;;
22571;SDS011;11452;53.368;14.658;2023-03-05T18:35:17;3.67;;;2.37;;
22571;SDS011;11452;53.368;14.658;2023-03-05T18:40:23;4.37;;;1.60;;
22571;SDS011;11452;53.368;14.658;2023-03-05T18:45:31;6.23;;;1.87;;
22571;SDS011;11452;53.368;14.658;2023-03-05T18:50:37;3.90;;;1.67;;
22571;SDS011;11452;53.368;14.658;2023-03-05T18:55:43;3.30;;;1.80;;
22571;SDS011;11452;53.368;14.658;2023-03-05T19:00:48;3.17;;;1.67;;
22571;SDS011;11452;53.368;14.658;2023-03-05T19:05:54;3.80;;;2.53;;
22571;SDS011;11452;53.368;14.658;2023-03-05T19:11:00;3.27;;;1.87;;
22571;SDS011;11452;53.368;14.658;2023-03-05T19:16:10;2.07;;;1.53;;
22571;SDS011;11452;53.368;14.658;2023-03-05T19:21:18;3.20;;;1.90;;
22571;SDS011;11452;53.368;14.658;2023-03-05T19:26:24;2.20;;;1.60;;
22571;SDS011;11452;53.368;14.658;2023-03-05T19:31:29;2.70;;;1.97;;
22571;SDS011;11452;53.368;14.658;2023-03-05T19:36:37;3.63;;;1.63;;
22571;SDS011;11452;53.368;14.658;2023-03-05T19:41:42;3.93;;;1.67;;
22571;SDS011;11452;53.368;14.658;2023-03-05T19:46:48;3.67;;;1.67;;
22571;SDS011;11452;53.368;14.658;2023-03-05T19:51:53;3.40;;;1.70;;
22571;SDS011;11452;53.368;14.658;2023-03-05T19:56:59;3.20;;;2.00;;
22571;SDS011;11452;53.368;14.658;2023-03-05T20:02:05;4.40;;;2.50;;
22571;SDS011;11452;53.368;14.658;2023-03-05T20:07:11;2.97;;;1.90;;
22571;SDS011;11452;53.368;14.658;2023-03-05T20:12:19;3.67;;;1.83;;
22571;SDS011;11452;53.368;14.658;2023-03-05T20:17:26;3.37;;;2.10;;
22571;SDS011;11452;53.368;14.658;2023-03-05T20:22:31;3.80;;;1.90;;
22571;SDS011;11452;53.368;14.658;2023-03-05T20:27:37;4.17;;;1.70;;
22571;SDS011;11452;53.368;14.658;2023-03-05T20:32:44;2.57;;;1.20;;
22571;SDS011;11452;53.368;14.658;2023-03-05T20:37:51;2.37;;;1.77;;
22571;SDS011;11452;53.368;14.658;2023-03-05T20:42:59;2.77;;;1.43;;
22571;SDS011;11452;53.368;14.658;2023-03-05T20:48:05;3.77;;;1.43;;
22571;SDS011;11452;53.368;14.658;2023-03-05T20:53:13;2.13;;;1.30;;
22571;SDS011;11452;53.368;14.658;2023-03-05T20:58:19;2.23;;;1.47;;
22571;SDS011;11452;53.368;14.658;2023-03-05T21:03:25;1.80;;;1.40;;
22571;SDS011;11452;53.368;14.658;2023-03-05T21:08:31;3.70;;;1.63;;
22571;SDS011;11452;53.368;14.658;2023-03-05T21:13:37;4.37;;;1.63;;
22571;SDS011;11452;53.368;14.658;2023-03-05T21:18:43;2.03;;;1.30;;
22571;SDS011;11452;53.368;14.658;2023-03-05T21:23:49;3.47;;;1.67;;
22571;SDS011;11452;53.368;14.658;2023-03-05T21:28:54;3.23;;;1.50;;
22571;SDS011;11452;53.368;14.658;2023-03-05T21:34:00;2.27;;;1.87;;
22571;SDS011;11452;53.368;14.658;2023-03-05T21:39:07;3.57;;;1.60;;
22571;SDS011;11452;53.368;14.658;2023-03-05T21:44:12;2.43;;;1.40;;
22571;SDS011;11452;53.368;14.658;2023-03-05T21:49:19;3.23;;;1.50;;
22571;SDS011;11452;53.368;14.658;2023-03-05T21:54:25;2.23;;;1.50;;
22571;SDS011;11452;53.368;14.658;2023-03-05T21:59:31;2.37;;;1.53;;
22571;SDS011;11452;53.368;14.658;2023-03-05T22:04:37;2.33;;;1.60;;
22571;SDS011;11452;53.368;14.658;2023-03-05T22:09:43;1.53;;;1.40;;
22571;SDS011;11452;53.368;14.658;2023-03-05T22:14:49;2.47;;;1.57;;
22571;SDS011;11452;53.368;14.658;2023-03-05T22:19:55;1.80;;;1.40;;
22571;SDS011;11452;53.368;14.658;2023-03-05T22:25:01;2.67;;;1.57;;
22571;SDS011;11452;53.368;14.658;2023-03-05T22:30:08;3.03;;;1.40;;
22571;SDS011;11452;53.368;14.658;2023-03-05T22:35:14;1.57;;;1.33;;
22571;SDS011;11452;53.368;14.658;2023-03-05T22:40:20;3.03;;;1.43;;
22571;SDS011;11452;53.368;14.658;2023-03-05T22:45:27;2.47;;;1.20;;
22571;SDS011;11452;53.368;14.658;2023-03-05T22:50:33;2.47;;;1.30;;
22571;SDS011;11452;53.368;14.658;2023-03-05T22:55:40;2.20;;;1.13;;
22571;SDS011;11452;53.368;14.658;2023-03-05T23:00:47;2.23;;;1.53;;
22571;SDS011;11452;53.368;14.658;2023-03-05T23:05:53;1.17;;;0.90;;
22571;SDS011;11452;53.368;14.658;2023-03-05T23:11:00;1.93;;;1.20;;
22571;SDS011;11452;53.368;14.658;2023-03-05T23:16:07;1.80;;;1.70;;
22571;SDS011;11452;53.368;14.658;2023-03-05T23:21:12;2.90;;;1.43;;
22571;SDS011;11452;53.368;14.658;2023-03-05T23:26:18;3.23;;;2.30;;
22571;SDS011;11452;53.368;14.658;2023-03-05T23:31:23;2.10;;;1.17;;
22571;SDS011;11452;53.368;14.658;2023-03-05T23:36:29;2.33;;;1.30;;
22571;SDS011;11452;53.368;14.658;2023-03-05T23:41:34;3.13;;;1.20;;
22571;SDS011;11452;53.368;14.658;2023-03-05T23:46:41;1.30;;;1.20;;
22571;SDS011;11452;53.368;14.658;2023-03-05T23:51:47;2.30;;;1.10;;
22571;SDS011;11452;53.368;14.658;2023-03-05T23:56:52;1.27;;;0.80;;
